sensor_id;sensor_type;location;lat;lon;timestamp;temperature;humidity
40454;DHT22;26160;51.858;4.398;2022-09-12T00:01:13;15.20;99.90
40454;DHT22;26160;51.858;4.398;2022-09-12T00:03:40;15.10;99.90
40454;DHT22;26160;51.858;4.398;2022-09-12T00:06:12;15.20;99.90
40454;DHT22;26160;51.858;4.398;2022-09-12T00:08:39;15.10;99.90
40454;DHT22;26160;51.858;4.398;2022-09-12T00:11:08;15.10;99.90
40454;DHT22;26160;51.858;4.398;2022-09-12T00:13:36;15.10;99.90
40454;DHT22;26160;51.858;4.398;2022-09-12T00:16:03;15.10;99.90
40454;DHT22;26160;51.858;4.398;2022-09-12T00:18:31;15.10;99.90
40454;DHT22;26160;51.858;4.398;2022-09-12T00:21:02;15.00;99.90
40454;DHT22;26160;51.858;4.398;2022-09-12T00:23:30;15.00;99.90
40454;DHT22;26160;51.858;4.398;2022-09-12T00:25:56;15.00;99.90
40454;DHT22;26160;51.858;4.398;2022-09-12T00:28:22;15.00;99.90
40454;DHT22;26160;51.858;4.398;2022-09-12T00:30:48;15.00;99.90
40454;DHT22;26160;51.858;4.398;2022-09-12T00:33:16;15.00;99.90
40454;DHT22;26160;51.858;4.398;2022-09-12T00:35:48;15.00;99.90
40454;DHT22;26160;51.858;4.398;2022-09-12T00:38:16;15.10;99.90
40454;DHT22;26160;51.858;4.398;2022-09-12T00:40:43;15.10;99.90
40454;DHT22;26160;51.858;4.398;2022-09-12T00:43:14;15.10;99.90
40454;DHT22;26160;51.858;4.398;2022-09-12T00:45:40;15.10;99.90
40454;DHT22;26160;51.858;4.398;2022-09-12T00:48:19;15.10;99.90
40454;DHT22;26160;51.858;4.398;2022-09-12T00:50:48;15.10;99.90
40454;DHT22;26160;51.858;4.398;2022-09-12T00:53:15;15.10;99.90
40454;DHT22;26160;51.858;4.398;2022-09-12T00:55:42;15.10;99.90
40454;DHT22;26160;51.858;4.398;2022-09-12T00:58:27;15.10;99.90
40454;DHT22;26160;51.858;4.398;2022-09-12T02:12:00;15.30;99.90
40454;DHT22;26160;51.858;4.398;2022-09-12T03:24:17;15.50;99.90
40454;DHT22;26160;51.858;4.398;2022-09-12T06:00:30;14.60;99.90
40454;DHT22;26160;51.858;4.398;2022-09-12T06:06:38;14.60;99.90
40454;DHT22;26160;51.858;4.398;2022-09-12T06:25:58;15.10;99.90
40454;DHT22;26160;51.858;4.398;2022-09-12T06:33:35;15.40;99.90
40454;DHT22;26160;51.858;4.398;2022-09-12T06:36:06;15.50;99.90
40454;DHT22;26160;51.858;4.398;2022-09-12T06:38:34;15.60;99.90
40454;DHT22;26160;51.858;4.398;2022-09-12T06:41:09;15.60;99.90
40454;DHT22;26160;51.858;4.398;2022-09-12T06:43:37;15.70;99.90
40454;DHT22;26160;51.858;4.398;2022-09-12T06:46:04;15.90;99.90
40454;DHT22;26160;51.858;4.398;2022-09-12T06:48:30;16.00;99.90
40454;DHT22;26160;51.858;4.398;2022-09-12T06:51:02;16.00;99.90
40454;DHT22;26160;51.858;4.398;2022-09-12T06:53:29;16.20;99.90
40454;DHT22;26160;51.858;4.398;2022-09-12T06:56:00;16.30;99.90
40454;DHT22;26160;51.858;4.398;2022-09-12T06:58:27;16.40;99.90
40454;DHT22;26160;51.858;4.398;2022-09-12T07:01:06;16.40;99.90
40454;DHT22;26160;51.858;4.398;2022-09-12T07:03:33;16.50;99.90
40454;DHT22;26160;51.858;4.398;2022-09-12T07:06:20;16.60;99.90
40454;DHT22;26160;51.858;4.398;2022-09-12T07:08:47;16.60;99.90
40454;DHT22;26160;51.858;4.398;2022-09-12T07:11:18;16.70;99.90
40454;DHT22;26160;51.858;4.398;2022-09-12T07:13:46;16.70;99.90
40454;DHT22;26160;51.858;4.398;2022-09-12T07:16:13;16.80;99.90
40454;DHT22;26160;51.858;4.398;2022-09-12T07:18:39;16.90;99.90
40454;DHT22;26160;51.858;4.398;2022-09-12T07:21:09;16.90;99.90
40454;DHT22;26160;51.858;4.398;2022-09-12T07:23:35;17.00;99.90
40454;DHT22;26160;51.858;4.398;2022-09-12T07:26:02;17.10;99.90
40454;DHT22;26160;51.858;4.398;2022-09-12T07:28:30;17.10;99.90
40454;DHT22;26160;51.858;4.398;2022-09-12T07:30:57;17.20;99.90
40454;DHT22;26160;51.858;4.398;2022-09-12T07:33:29;17.30;99.90
40454;DHT22;26160;51.858;4.398;2022-09-12T07:36:00;17.40;99.90
40454;DHT22;26160;51.858;4.398;2022-09-12T07:38:28;17.40;99.90
40454;DHT22;26160;51.858;4.398;2022-09-12T07:40:54;17.50;99.90
40454;DHT22;26160;51.858;4.398;2022-09-12T07:43:20;17.70;99.90
40454;DHT22;26160;51.858;4.398;2022-09-12T07:45:46;17.70;99.90
40454;DHT22;26160;51.858;4.398;2022-09-12T07:48:12;17.80;99.90
40454;DHT22;26160;51.858;4.398;2022-09-12T07:50:39;18.00;99.90
40454;DHT22;26160;51.858;4.398;2022-09-12T07:53:06;18.10;99.90
40454;DHT22;26160;51.858;4.398;2022-09-12T07:55:32;18.20;99.90
40454;DHT22;26160;51.858;4.398;2022-09-12T07:57:58;18.30;99.90
40454;DHT22;26160;51.858;4.398;2022-09-12T08:00:25;18.50;99.90
40454;DHT22;26160;51.858;4.398;2022-09-12T08:03:00;18.60;99.90
40454;DHT22;26160;51.858;4.398;2022-09-12T08:05:27;18.80;99.90
40454;DHT22;26160;51.858;4.398;2022-09-12T08:07:54;19.00;99.90
40454;DHT22;26160;51.858;4.398;2022-09-12T08:10:21;19.20;99.90
40454;DHT22;26160;51.858;4.398;2022-09-12T08:12:47;19.30;99.90
40454;DHT22;26160;51.858;4.398;2022-09-12T08:15:13;19.60;99.90
40454;DHT22;26160;51.858;4.398;2022-09-12T08:17:39;19.40;99.90
40454;DHT22;26160;51.858;4.398;2022-09-12T08:20:06;19.50;99.90
40454;DHT22;26160;51.858;4.398;2022-09-12T08:22:32;19.60;99.90
40454;DHT22;26160;51.858;4.398;2022-09-12T08:24:58;19.60;99.90
40454;DHT22;26160;51.858;4.398;2022-09-12T08:27:24;20.00;99.90
40454;DHT22;26160;51.858;4.398;2022-09-12T08:29:50;20.10;99.90
40454;DHT22;26160;51.858;4.398;2022-09-12T08:32:17;20.20;99.90
40454;DHT22;26160;51.858;4.398;2022-09-12T08:34:43;20.30;99.90
40454;DHT22;26160;51.858;4.398;2022-09-12T08:37:10;20.20;99.90
40454;DHT22;26160;51.858;4.398;2022-09-12T08:39:36;20.10;99.90
40454;DHT22;26160;51.858;4.398;2022-09-12T08:42:04;20.10;99.90
40454;DHT22;26160;51.858;4.398;2022-09-12T08:55:23;20.40;99.90
40454;DHT22;26160;51.858;4.398;2022-09-12T08:57:51;20.50;99.90
40454;DHT22;26160;51.858;4.398;2022-09-12T09:00:18;20.40;99.90
40454;DHT22;26160;51.858;4.398;2022-09-12T09:10:53;20.60;99.90
40454;DHT22;26160;51.858;4.398;2022-09-12T09:13:50;20.70;99.90
40454;DHT22;26160;51.858;4.398;2022-09-12T09:16:40;20.90;99.90
40454;DHT22;26160;51.858;4.398;2022-09-12T09:19:17;20.90;99.90
40454;DHT22;26160;51.858;4.398;2022-09-12T09:22:04;20.70;99.90
40454;DHT22;26160;51.858;4.398;2022-09-12T09:24:45;20.80;99.90
40454;DHT22;26160;51.858;4.398;2022-09-12T09:29:48;21.20;99.90
40454;DHT22;26160;51.858;4.398;2022-09-12T09:32:25;21.00;99.90
40454;DHT22;26160;51.858;4.398;2022-09-12T09:34:51;20.90;99.90
40454;DHT22;26160;51.858;4.398;2022-09-12T09:37:50;20.80;99.90
40454;DHT22;26160;51.858;4.398;2022-09-12T09:40:33;20.90;99.90
40454;DHT22;26160;51.858;4.398;2022-09-12T09:43:20;21.00;99.90
40454;DHT22;26160;51.858;4.398;2022-09-12T09:45:48;21.30;99.90
40454;DHT22;26160;51.858;4.398;2022-09-12T09:50:44;21.50;99.90
40454;DHT22;26160;51.858;4.398;2022-09-12T09:53:34;21.50;99.90
40454;DHT22;26160;51.858;4.398;2022-09-12T09:59:19;21.30;99.90
40454;DHT22;26160;51.858;4.398;2022-09-12T10:01:58;21.90;99.90
40454;DHT22;26160;51.858;4.398;2022-09-12T10:04:31;22.10;99.90
40454;DHT22;26160;51.858;4.398;2022-09-12T10:07:00;22.10;99.90
40454;DHT22;26160;51.858;4.398;2022-09-12T10:09:32;22.30;99.90
40454;DHT22;26160;51.858;4.398;2022-09-12T10:12:00;22.30;99.90
40454;DHT22;26160;51.858;4.398;2022-09-12T10:14:37;22.40;99.90
40454;DHT22;26160;51.858;4.398;2022-09-12T10:17:24;22.20;99.90
40454;DHT22;26160;51.858;4.398;2022-09-12T10:19:52;22.20;99.90
40454;DHT22;26160;51.858;4.398;2022-09-12T10:22:21;22.20;99.90
40454;DHT22;26160;51.858;4.398;2022-09-12T10:24:59;22.60;99.90
40454;DHT22;26160;51.858;4.398;2022-09-12T10:27:30;22.90;99.90
40454;DHT22;26160;51.858;4.398;2022-09-12T10:30:19;22.70;99.90
40454;DHT22;26160;51.858;4.398;2022-09-12T10:32:50;22.70;99.90
40454;DHT22;26160;51.858;4.398;2022-09-12T10:38:00;23.10;99.90
40454;DHT22;26160;51.858;4.398;2022-09-12T10:40:34;22.90;99.90
40454;DHT22;26160;51.858;4.398;2022-09-12T10:43:15;23.00;99.90
40454;DHT22;26160;51.858;4.398;2022-09-12T10:45:42;22.80;99.90
40454;DHT22;26160;51.858;4.398;2022-09-12T10:48:28;22.60;99.90
40454;DHT22;26160;51.858;4.398;2022-09-12T10:50:55;22.90;99.90
40454;DHT22;26160;51.858;4.398;2022-09-12T10:53:31;23.30;99.90
40454;DHT22;26160;51.858;4.398;2022-09-12T10:56:11;23.10;99.90
40454;DHT22;26160;51.858;4.398;2022-09-12T11:01:37;22.90;99.90
40454;DHT22;26160;51.858;4.398;2022-09-12T11:04:37;23.10;99.90
40454;DHT22;26160;51.858;4.398;2022-09-12T11:10:31;23.50;99.90
40454;DHT22;26160;51.858;4.398;2022-09-12T11:24:30;24.30;99.90
40454;DHT22;26160;51.858;4.398;2022-09-12T11:35:28;24.00;99.90
40454;DHT22;26160;51.858;4.398;2022-09-12T11:40:52;24.40;99.90
40454;DHT22;26160;51.858;4.398;2022-09-12T11:52:02;23.60;99.90
40454;DHT22;26160;51.858;4.398;2022-09-12T11:54:45;23.40;99.90
40454;DHT22;26160;51.858;4.398;2022-09-12T11:57:24;23.60;99.90
40454;DHT22;26160;51.858;4.398;2022-09-12T12:00:04;23.40;99.90
40454;DHT22;26160;51.858;4.398;2022-09-12T12:02:40;23.70;99.90
40454;DHT22;26160;51.858;4.398;2022-09-12T12:05:24;23.80;99.90
40454;DHT22;26160;51.858;4.398;2022-09-12T12:07:59;23.90;99.90
40454;DHT22;26160;51.858;4.398;2022-09-12T12:10:56;24.10;99.90
40454;DHT22;26160;51.858;4.398;2022-09-12T12:13:38;24.30;99.90
40454;DHT22;26160;51.858;4.398;2022-09-12T12:18:36;23.50;99.90
40454;DHT22;26160;51.858;4.398;2022-09-12T12:34:41;23.80;99.90
40454;DHT22;26160;51.858;4.398;2022-09-12T12:45:45;24.30;99.90
40454;DHT22;26160;51.858;4.398;2022-09-12T12:47:46;24.40;99.90
40454;DHT22;26160;51.858;4.398;2022-09-12T12:52:50;24.30;99.90
40454;DHT22;26160;51.858;4.398;2022-09-12T12:55:22;24.40;99.90
40454;DHT22;26160;51.858;4.398;2022-09-12T12:57:59;24.40;99.90
40454;DHT22;26160;51.858;4.398;2022-09-12T13:03:40;24.40;99.90
40454;DHT22;26160;51.858;4.398;2022-09-12T13:05:49;24.30;99.90
40454;DHT22;26160;51.858;4.398;2022-09-12T13:11:00;24.50;99.90
40454;DHT22;26160;51.858;4.398;2022-09-12T13:13:31;24.40;99.90
40454;DHT22;26160;51.858;4.398;2022-09-12T13:15:59;24.00;99.90
40454;DHT22;26160;51.858;4.398;2022-09-12T13:18:43;24.30;99.90
40454;DHT22;26160;51.858;4.398;2022-09-12T13:21:15;24.30;99.90
40454;DHT22;26160;51.858;4.398;2022-09-12T13:23:42;23.90;99.90
40454;DHT22;26160;51.858;4.398;2022-09-12T13:26:55;23.80;99.90
40454;DHT22;26160;51.858;4.398;2022-09-12T13:29:15;23.80;99.90
40454;DHT22;26160;51.858;4.398;2022-09-12T13:31:44;23.80;99.90
40454;DHT22;26160;51.858;4.398;2022-09-12T13:34:20;24.00;99.90
40454;DHT22;26160;51.858;4.398;2022-09-12T13:37:30;24.30;99.90
40454;DHT22;26160;51.858;4.398;2022-09-12T13:39:47;24.30;99.90
40454;DHT22;26160;51.858;4.398;2022-09-12T13:45:22;24.10;99.90
40454;DHT22;26160;51.858;4.398;2022-09-12T13:47:54;24.10;99.90
40454;DHT22;26160;51.858;4.398;2022-09-12T13:50:27;24.30;99.90
40454;DHT22;26160;51.858;4.398;2022-09-12T13:53:10;24.40;99.90
40454;DHT22;26160;51.858;4.398;2022-09-12T13:55:40;24.30;99.90
40454;DHT22;26160;51.858;4.398;2022-09-12T13:58:23;23.90;99.90
40454;DHT22;26160;51.858;4.398;2022-09-12T14:01:11;23.60;99.90
40454;DHT22;26160;51.858;4.398;2022-09-12T14:03:56;23.80;99.90
40454;DHT22;26160;51.858;4.398;2022-09-12T14:06:47;23.90;99.90
40454;DHT22;26160;51.858;4.398;2022-09-12T14:09:43;24.00;99.90
40454;DHT22;26160;51.858;4.398;2022-09-12T14:12:39;24.30;99.90
40454;DHT22;26160;51.858;4.398;2022-09-12T14:15:26;24.30;99.90
40454;DHT22;26160;51.858;4.398;2022-09-12T14:17:55;24.10;99.90
40454;DHT22;26160;51.858;4.398;2022-09-12T14:20:28;24.00;99.90
40454;DHT22;26160;51.858;4.398;2022-09-12T14:23:14;24.20;99.90
40454;DHT22;26160;51.858;4.398;2022-09-12T14:25:44;24.30;99.90
40454;DHT22;26160;51.858;4.398;2022-09-12T14:28:13;24.40;99.90
40454;DHT22;26160;51.858;4.398;2022-09-12T14:33:23;24.40;99.90
40454;DHT22;26160;51.858;4.398;2022-09-12T14:35:51;24.40;99.90
40454;DHT22;26160;51.858;4.398;2022-09-12T14:38:23;24.50;99.90
40454;DHT22;26160;51.858;4.398;2022-09-12T14:40:58;24.40;99.90
40454;DHT22;26160;51.858;4.398;2022-09-12T14:43:37;24.30;99.90
40454;DHT22;26160;51.858;4.398;2022-09-12T14:46:22;24.20;99.90
40454;DHT22;26160;51.858;4.398;2022-09-12T14:48:55;24.10;99.90
40454;DHT22;26160;51.858;4.398;2022-09-12T14:51:32;24.10;99.90
40454;DHT22;26160;51.858;4.398;2022-09-12T14:53:59;24.00;99.90
40454;DHT22;26160;51.858;4.398;2022-09-12T14:56:52;24.30;99.90
40454;DHT22;26160;51.858;4.398;2022-09-12T15:02:18;24.20;99.90
40454;DHT22;26160;51.858;4.398;2022-09-12T15:04:51;24.10;99.90
40454;DHT22;26160;51.858;4.398;2022-09-12T15:10:33;24.40;99.90
40454;DHT22;26160;51.858;4.398;2022-09-12T15:15:36;24.10;99.90
40454;DHT22;26160;51.858;4.398;2022-09-12T15:18:03;24.00;99.90
40454;DHT22;26160;51.858;4.398;2022-09-12T15:20:31;24.00;99.90
40454;DHT22;26160;51.858;4.398;2022-09-12T15:22:58;23.80;99.90
40454;DHT22;26160;51.858;4.398;2022-09-12T15:25:24;23.80;99.90
40454;DHT22;26160;51.858;4.398;2022-09-12T15:27:51;23.90;99.90
40454;DHT22;26160;51.858;4.398;2022-09-12T15:30:18;24.00;99.90
40454;DHT22;26160;51.858;4.398;2022-09-12T15:32:44;24.00;99.90
40454;DHT22;26160;51.858;4.398;2022-09-12T15:35:23;24.20;99.90
40454;DHT22;26160;51.858;4.398;2022-09-12T15:37:50;24.30;99.90
40454;DHT22;26160;51.858;4.398;2022-09-12T15:40:16;24.40;99.90
40454;DHT22;26160;51.858;4.398;2022-09-12T15:42:43;24.70;99.90
40454;DHT22;26160;51.858;4.398;2022-09-12T15:47:42;24.90;99.90
40454;DHT22;26160;51.858;4.398;2022-09-12T15:50:08;24.80;99.90
40454;DHT22;26160;51.858;4.398;2022-09-12T15:52:35;24.60;99.90
40454;DHT22;26160;51.858;4.398;2022-09-12T15:55:03;24.50;99.90
40454;DHT22;26160;51.858;4.398;2022-09-12T15:57:29;24.10;99.90
40454;DHT22;26160;51.858;4.398;2022-09-12T15:59:55;23.90;99.90
40454;DHT22;26160;51.858;4.398;2022-09-12T16:02:21;24.00;99.90
40454;DHT22;26160;51.858;4.398;2022-09-12T16:04:47;23.90;99.90
40454;DHT22;26160;51.858;4.398;2022-09-12T16:07:13;23.70;99.90
40454;DHT22;26160;51.858;4.398;2022-09-12T16:09:41;23.80;99.90
40454;DHT22;26160;51.858;4.398;2022-09-12T16:12:08;24.00;99.90
40454;DHT22;26160;51.858;4.398;2022-09-12T16:14:34;23.90;99.90
40454;DHT22;26160;51.858;4.398;2022-09-12T16:17:00;23.80;99.90
40454;DHT22;26160;51.858;4.398;2022-09-12T16:19:26;23.80;99.90
40454;DHT22;26160;51.858;4.398;2022-09-12T16:21:52;23.60;99.90
40454;DHT22;26160;51.858;4.398;2022-09-12T16:24:18;23.50;99.90
40454;DHT22;26160;51.858;4.398;2022-09-12T16:26:44;23.50;99.90
40454;DHT22;26160;51.858;4.398;2022-09-12T16:29:11;23.60;99.90
40454;DHT22;26160;51.858;4.398;2022-09-12T16:31:38;23.60;99.90
40454;DHT22;26160;51.858;4.398;2022-09-12T16:34:05;23.40;99.90
40454;DHT22;26160;51.858;4.398;2022-09-12T16:36:31;23.40;99.90
40454;DHT22;26160;51.858;4.398;2022-09-12T16:38:57;23.30;99.90
40454;DHT22;26160;51.858;4.398;2022-09-12T16:41:23;23.20;99.90
40454;DHT22;26160;51.858;4.398;2022-09-12T16:43:50;23.10;99.90
40454;DHT22;26160;51.858;4.398;2022-09-12T16:46:21;23.10;99.90
40454;DHT22;26160;51.858;4.398;2022-09-12T16:48:49;23.20;99.90
40454;DHT22;26160;51.858;4.398;2022-09-12T16:51:17;23.20;99.90
40454;DHT22;26160;51.858;4.398;2022-09-12T16:53:45;23.20;99.90
40454;DHT22;26160;51.858;4.398;2022-09-12T16:56:11;23.20;99.90
40454;DHT22;26160;51.858;4.398;2022-09-12T16:58:39;23.20;99.90
40454;DHT22;26160;51.858;4.398;2022-09-12T17:01:14;23.20;99.90
40454;DHT22;26160;51.858;4.398;2022-09-12T17:03:41;23.20;99.90
40454;DHT22;26160;51.858;4.398;2022-09-12T17:06:10;23.10;99.90
40454;DHT22;26160;51.858;4.398;2022-09-12T17:08:39;23.10;99.90
40454;DHT22;26160;51.858;4.398;2022-09-12T17:11:10;23.00;99.90
40454;DHT22;26160;51.858;4.398;2022-09-12T17:13:39;23.00;99.90
40454;DHT22;26160;51.858;4.398;2022-09-12T17:16:09;23.00;99.90
40454;DHT22;26160;51.858;4.398;2022-09-12T17:18:39;22.90;99.90
40454;DHT22;26160;51.858;4.398;2022-09-12T17:21:06;22.90;99.90
40454;DHT22;26160;51.858;4.398;2022-09-12T17:23:33;22.80;99.90
40454;DHT22;26160;51.858;4.398;2022-09-12T17:25:59;22.80;99.90
40454;DHT22;26160;51.858;4.398;2022-09-12T17:28:25;22.70;99.90
40454;DHT22;26160;51.858;4.398;2022-09-12T17:30:56;22.70;99.90
40454;DHT22;26160;51.858;4.398;2022-09-12T17:33:23;22.50;99.90
40454;DHT22;26160;51.858;4.398;2022-09-12T17:35:49;22.50;99.90
40454;DHT22;26160;51.858;4.398;2022-09-12T17:38:16;22.50;99.90
40454;DHT22;26160;51.858;4.398;2022-09-12T17:40:42;22.40;99.90
40454;DHT22;26160;51.858;4.398;2022-09-12T17:43:13;22.30;99.90
40454;DHT22;26160;51.858;4.398;2022-09-12T17:45:39;22.30;99.90
40454;DHT22;26160;51.858;4.398;2022-09-12T17:48:06;22.20;99.90
40454;DHT22;26160;51.858;4.398;2022-09-12T17:50:37;22.10;99.90
40454;DHT22;26160;51.858;4.398;2022-09-12T17:53:03;22.10;99.90
40454;DHT22;26160;51.858;4.398;2022-09-12T17:55:35;21.90;99.90
40454;DHT22;26160;51.858;4.398;2022-09-12T17:58:01;21.80;99.90
40454;DHT22;26160;51.858;4.398;2022-09-12T18:00:29;21.80;99.90
40454;DHT22;26160;51.858;4.398;2022-09-12T18:03:14;21.80;99.90
40454;DHT22;26160;51.858;4.398;2022-09-12T18:05:47;21.60;99.90
40454;DHT22;26160;51.858;4.398;2022-09-12T18:08:14;21.50;99.90
40454;DHT22;26160;51.858;4.398;2022-09-12T18:10:43;21.40;99.90
40454;DHT22;26160;51.858;4.398;2022-09-12T18:13:27;21.40;99.90
40454;DHT22;26160;51.858;4.398;2022-09-12T18:15:54;21.30;99.90
40454;DHT22;26160;51.858;4.398;2022-09-12T18:18:20;21.30;99.90
40454;DHT22;26160;51.858;4.398;2022-09-12T18:20:52;21.20;99.90
40454;DHT22;26160;51.858;4.398;2022-09-12T18:23:18;21.10;99.90
40454;DHT22;26160;51.858;4.398;2022-09-12T18:25:48;21.00;99.90
40454;DHT22;26160;51.858;4.398;2022-09-12T18:28:16;21.00;99.90
40454;DHT22;26160;51.858;4.398;2022-09-12T18:30:43;21.00;99.90
40454;DHT22;26160;51.858;4.398;2022-09-12T18:33:09;20.90;99.90
40454;DHT22;26160;51.858;4.398;2022-09-12T18:35:36;20.80;99.90
40454;DHT22;26160;51.858;4.398;2022-09-12T18:38:03;20.80;99.90
40454;DHT22;26160;51.858;4.398;2022-09-12T18:40:29;20.70;99.90
40454;DHT22;26160;51.858;4.398;2022-09-12T18:42:55;20.60;99.90
40454;DHT22;26160;51.858;4.398;2022-09-12T18:45:21;20.60;99.90
40454;DHT22;26160;51.858;4.398;2022-09-12T18:47:47;20.60;99.90
40454;DHT22;26160;51.858;4.398;2022-09-12T18:50:13;20.50;99.90
40454;DHT22;26160;51.858;4.398;2022-09-12T18:52:39;20.50;99.90
40454;DHT22;26160;51.858;4.398;2022-09-12T18:55:06;20.50;99.90
40454;DHT22;26160;51.858;4.398;2022-09-12T18:57:32;20.40;99.90
40454;DHT22;26160;51.858;4.398;2022-09-12T19:00:00;20.40;99.90
40454;DHT22;26160;51.858;4.398;2022-09-12T19:02:28;20.40;99.90
40454;DHT22;26160;51.858;4.398;2022-09-12T19:04:54;20.40;99.90
40454;DHT22;26160;51.858;4.398;2022-09-12T19:07:21;20.40;99.90
40454;DHT22;26160;51.858;4.398;2022-09-12T19:09:47;20.40;99.90
40454;DHT22;26160;51.858;4.398;2022-09-12T19:12:13;20.30;99.90
40454;DHT22;26160;51.858;4.398;2022-09-12T19:14:39;20.30;99.90
40454;DHT22;26160;51.858;4.398;2022-09-12T19:17:05;20.30;99.90
40454;DHT22;26160;51.858;4.398;2022-09-12T19:19:31;20.30;99.90
40454;DHT22;26160;51.858;4.398;2022-09-12T19:21:57;20.30;99.90
40454;DHT22;26160;51.858;4.398;2022-09-12T19:24:23;20.30;99.90
40454;DHT22;26160;51.858;4.398;2022-09-12T19:26:50;20.30;99.90
40454;DHT22;26160;51.858;4.398;2022-09-12T19:29:16;20.30;99.90
40454;DHT22;26160;51.858;4.398;2022-09-12T19:31:43;20.30;99.90
40454;DHT22;26160;51.858;4.398;2022-09-12T19:34:11;20.30;99.90
40454;DHT22;26160;51.858;4.398;2022-09-12T19:36:38;20.30;99.90
40454;DHT22;26160;51.858;4.398;2022-09-12T19:39:06;20.20;99.90
40454;DHT22;26160;51.858;4.398;2022-09-12T19:41:33;20.20;99.90
40454;DHT22;26160;51.858;4.398;2022-09-12T19:43:59;20.10;99.90
40454;DHT22;26160;51.858;4.398;2022-09-12T19:46:26;20.10;99.90
40454;DHT22;26160;51.858;4.398;2022-09-12T19:48:52;20.00;99.90
40454;DHT22;26160;51.858;4.398;2022-09-12T19:51:20;20.00;99.90
40454;DHT22;26160;51.858;4.398;2022-09-12T19:53:46;20.00;99.90
40454;DHT22;26160;51.858;4.398;2022-09-12T19:56:13;20.00;99.90
40454;DHT22;26160;51.858;4.398;2022-09-12T19:58:45;19.90;99.90
40454;DHT22;26160;51.858;4.398;2022-09-12T20:01:19;19.80;99.90
40454;DHT22;26160;51.858;4.398;2022-09-12T20:03:47;19.80;99.90
40454;DHT22;26160;51.858;4.398;2022-09-12T20:06:15;19.80;99.90
40454;DHT22;26160;51.858;4.398;2022-09-12T20:08:42;19.70;99.90
40454;DHT22;26160;51.858;4.398;2022-09-12T20:11:13;19.70;99.90
40454;DHT22;26160;51.858;4.398;2022-09-12T20:13:40;19.60;99.90
40454;DHT22;26160;51.858;4.398;2022-09-12T20:16:14;19.60;99.90
40454;DHT22;26160;51.858;4.398;2022-09-12T20:18:42;19.50;99.90
40454;DHT22;26160;51.858;4.398;2022-09-12T20:21:32;19.50;99.90
40454;DHT22;26160;51.858;4.398;2022-09-12T20:24:08;19.50;99.90
40454;DHT22;26160;51.858;4.398;2022-09-12T20:26:43;19.40;99.90
40454;DHT22;26160;51.858;4.398;2022-09-12T20:29:10;19.40;99.90
40454;DHT22;26160;51.858;4.398;2022-09-12T20:31:38;19.40;99.90
40454;DHT22;26160;51.858;4.398;2022-09-12T20:34:04;19.30;99.90
40454;DHT22;26160;51.858;4.398;2022-09-12T20:36:31;19.30;99.90
40454;DHT22;26160;51.858;4.398;2022-09-12T20:38:59;19.20;99.90
40454;DHT22;26160;51.858;4.398;2022-09-12T20:41:31;19.20;99.90
40454;DHT22;26160;51.858;4.398;2022-09-12T20:44:00;19.20;99.90
40454;DHT22;26160;51.858;4.398;2022-09-12T20:46:28;19.10;99.90
40454;DHT22;26160;51.858;4.398;2022-09-12T20:48:54;19.10;99.90
40454;DHT22;26160;51.858;4.398;2022-09-12T20:51:26;19.10;99.90
40454;DHT22;26160;51.858;4.398;2022-09-12T20:53:55;19.20;99.90
40454;DHT22;26160;51.858;4.398;2022-09-12T20:56:55;19.20;99.90
40454;DHT22;26160;51.858;4.398;2022-09-12T20:59:27;19.20;99.90
40454;DHT22;26160;51.858;4.398;2022-09-12T21:01:55;19.30;99.90
40454;DHT22;26160;51.858;4.398;2022-09-12T21:04:22;19.30;99.90
40454;DHT22;26160;51.858;4.398;2022-09-12T21:06:55;19.30;99.90
40454;DHT22;26160;51.858;4.398;2022-09-12T21:09:21;19.30;99.90
40454;DHT22;26160;51.858;4.398;2022-09-12T21:11:47;19.40;99.90
40454;DHT22;26160;51.858;4.398;2022-09-12T21:14:16;19.40;99.90
40454;DHT22;26160;51.858;4.398;2022-09-12T21:16:42;19.40;99.90
40454;DHT22;26160;51.858;4.398;2022-09-12T21:19:08;19.40;99.90
40454;DHT22;26160;51.858;4.398;2022-09-12T21:21:35;19.40;99.90
40454;DHT22;26160;51.858;4.398;2022-09-12T21:24:01;19.40;99.90
40454;DHT22;26160;51.858;4.398;2022-09-12T21:26:28;19.50;99.90
40454;DHT22;26160;51.858;4.398;2022-09-12T21:28:54;19.50;99.90
40454;DHT22;26160;51.858;4.398;2022-09-12T21:31:20;19.50;99.90
40454;DHT22;26160;51.858;4.398;2022-09-12T21:33:47;19.40;99.90
40454;DHT22;26160;51.858;4.398;2022-09-12T21:36:13;19.50;99.90
40454;DHT22;26160;51.858;4.398;2022-09-12T21:38:39;19.50;99.90
40454;DHT22;26160;51.858;4.398;2022-09-12T21:41:15;19.50;99.90
40454;DHT22;26160;51.858;4.398;2022-09-12T21:43:42;19.50;99.90
40454;DHT22;26160;51.858;4.398;2022-09-12T21:46:09;19.50;99.90
40454;DHT22;26160;51.858;4.398;2022-09-12T21:48:35;19.50;99.90
40454;DHT22;26160;51.858;4.398;2022-09-12T21:51:02;19.50;99.90
40454;DHT22;26160;51.858;4.398;2022-09-12T21:53:29;19.50;99.90
40454;DHT22;26160;51.858;4.398;2022-09-12T21:56:00;19.50;99.90
40454;DHT22;26160;51.858;4.398;2022-09-12T21:58:27;19.50;99.90
40454;DHT22;26160;51.858;4.398;2022-09-12T22:00:55;19.50;99.90
40454;DHT22;26160;51.858;4.398;2022-09-12T22:03:21;19.40;99.90
40454;DHT22;26160;51.858;4.398;2022-09-12T22:05:56;19.50;99.90
40454;DHT22;26160;51.858;4.398;2022-09-12T22:08:22;19.50;99.90
40454;DHT22;26160;51.858;4.398;2022-09-12T22:10:48;19.50;99.90
40454;DHT22;26160;51.858;4.398;2022-09-12T22:13:14;19.50;99.90
40454;DHT22;26160;51.858;4.398;2022-09-12T22:15:42;19.40;99.90
40454;DHT22;26160;51.858;4.398;2022-09-12T22:18:09;19.40;99.90
40454;DHT22;26160;51.858;4.398;2022-09-12T22:20:36;19.40;99.90
40454;DHT22;26160;51.858;4.398;2022-09-12T22:23:02;19.40;99.90
40454;DHT22;26160;51.858;4.398;2022-09-12T22:25:46;19.30;99.90
40454;DHT22;26160;51.858;4.398;2022-09-12T22:28:13;19.30;99.90
40454;DHT22;26160;51.858;4.398;2022-09-12T22:30:40;19.30;99.90
40454;DHT22;26160;51.858;4.398;2022-09-12T22:33:08;19.20;99.90
40454;DHT22;26160;51.858;4.398;2022-09-12T22:35:34;19.20;99.90
40454;DHT22;26160;51.858;4.398;2022-09-12T22:38:01;19.20;99.90
40454;DHT22;26160;51.858;4.398;2022-09-12T22:40:27;19.20;99.90
40454;DHT22;26160;51.858;4.398;2022-09-12T22:42:53;19.20;99.90
40454;DHT22;26160;51.858;4.398;2022-09-12T22:45:19;19.20;99.90
40454;DHT22;26160;51.858;4.398;2022-09-12T22:47:45;19.20;99.90
40454;DHT22;26160;51.858;4.398;2022-09-12T22:50:12;19.20;99.90
40454;DHT22;26160;51.858;4.398;2022-09-12T22:52:38;19.20;99.90
40454;DHT22;26160;51.858;4.398;2022-09-12T22:55:04;19.10;99.90
40454;DHT22;26160;51.858;4.398;2022-09-12T22:57:30;19.10;99.90
40454;DHT22;26160;51.858;4.398;2022-09-12T22:59:56;19.20;99.90
40454;DHT22;26160;51.858;4.398;2022-09-12T23:02:22;19.20;99.90
40454;DHT22;26160;51.858;4.398;2022-09-12T23:04:48;19.20;99.90
40454;DHT22;26160;51.858;4.398;2022-09-12T23:07:14;19.20;99.90